Time;durP1;ratioP1;P1;durP2;ratioP2;P2;SDS_P1;SDS_P2;PMS_P1;PMS_P2;Temp;Humidity;BMP_temperature;BMP_pressure;BME280_temperature;BME280_humidity;BME280_pressure;Samples;Min_cycle;Max_cycle;Signal;HPM_P1;HPM_P2
2022/08/20 00:00:47;;;;;;;39.33;23.35;;;20.80;99.90;;;19.87;100.00;100760.25;5020018;28;20570;-78
2022/08/20 00:03:20;;;;;;;35.55;22.65;;;20.80;99.90;;;19.86;100.00;100765.72;5027018;28;20041;-78
2022/08/20 00:06:00;;;;;;;38.97;23.55;;;20.70;99.90;;;19.83;100.00;100758.81;5000248;28;20041;-78
2022/08/20 00:08:27;;;;;;;35.40;22.92;;;20.70;99.90;;;19.83;100.00;100769.50;5028099;28;20059;-78
2022/08/20 00:10:54;;;;;;;38.47;21.60;;;20.70;99.90;;;19.84;100.00;100768.50;5017955;28;20532;-78
2022/08/20 00:13:31;;;;;;;33.40;21.20;;;20.70;99.90;;;19.81;100.00;100778.63;5019450;28;20037;-78
2022/08/20 00:15:59;;;;;;;33.17;21.98;;;20.70;99.90;;;19.88;100.00;100785.97;5035738;28;20039;-78
2022/08/20 00:18:25;;;;;;;37.22;21.27;;;20.80;99.90;;;19.92;100.00;100791.06;5035217;28;20029;-78
2022/08/20 00:20:54;;;;;;;37.45;22.92;;;20.80;99.90;;;19.94;100.00;100786.44;5032091;28;20503;-78
2022/08/20 00:23:21;;;;;;;38.78;21.67;;;20.80;99.90;;;20.05;100.00;100781.03;5031162;28;20037;-78
2022/08/20 00:25:51;;;;;;;36.88;24.15;;;20.90;99.90;;;20.10;100.00;100781.47;5009086;28;20120;-78
2022/08/20 00:28:17;;;;;;;41.58;24.92;;;21.00;99.90;;;20.17;100.00;100782.66;5014979;28;20040;-79
2022/08/20 00:30:44;;;;;;;45.35;28.08;;;21.00;99.90;;;20.23;100.00;100773.22;5006906;28;20513;-78
2022/08/20 00:33:19;;;;;;;41.45;26.20;;;21.00;99.90;;;20.27;100.00;100774.66;5025012;28;20052;-78
2022/08/20 00:35:50;;;;;;;44.10;28.10;;;21.00;99.90;;;20.29;100.00;100775.38;5006871;28;20480;-78
2022/08/20 00:38:25;;;;;;;44.80;29.17;;;21.10;99.90;;;20.33;100.00;100792.84;5011378;28;20103;-78
2022/08/20 00:40:57;;;;;;;41.85;27.17;;;21.10;99.90;;;20.34;100.00;100791.84;5037217;28;20043;-78
2022/08/20 00:43:40;;;;;;;47.58;29.30;;;21.10;99.90;;;20.35;100.00;100792.72;5017175;28;20409;-78
2022/08/20 00:46:29;;;;;;;49.63;29.63;;;21.10;99.90;;;20.36;100.00;100794.41;5030400;28;20087;-79
2022/08/20 00:48:57;;;;;;;47.60;30.30;;;21.10;99.90;;;20.36;100.00;100794.41;5031828;28;20506;-78
2022/08/20 00:51:28;;;;;;;45.70;29.08;;;21.10;99.90;;;20.37;100.00;100810.34;5027010;28;20102;-78
2022/08/20 00:54:20;;;;;;;46.95;29.52;;;21.10;99.90;;;20.39;100.00;100818.19;5007147;28;20499;-79
2022/08/20 00:57:18;;;;;;;45.28;29.52;;;21.10;99.90;;;20.38;100.00;100814.69;4956328;28;20382;-79
2022/08/20 00:59:45;;;;;;;52.85;31.27;;;21.10;99.90;;;20.38;100.00;100803.97;5039741;28;20040;-80
2022/08/20 01:02:15;;;;;;;53.33;31.40;;;21.10;99.90;;;20.39;100.00;100805.69;5009093;28;20490;-78
2022/08/20 01:04:45;;;;;;;56.88;31.48;;;21.10;99.90;;;20.40;100.00;100807.38;5038521;28;20033;-78
2022/08/20 01:07:11;;;;;;;51.33;30.15;;;21.20;99.90;;;20.41;100.00;100808.22;5036353;28;20033;-78
2022/08/20 01:09:38;;;;;;;52.80;31.00;;;21.10;99.90;;;20.41;100.00;100800.19;5026724;28;20036;-78
2022/08/20 01:12:06;;;;;;;55.72;33.40;;;21.10;99.90;;;20.40;100.00;100798.50;5003250;28;20049;-78
2022/08/20 01:17:05;;;;;;;59.55;34.83;;;21.10;99.90;;;20.36;100.00;100807.78;5044150;28;20048;-78
2022/08/20 01:19:41;;;;;;;57.67;34.97;;;21.10;99.90;;;20.25;100.00;100793.50;5041528;28;20032;-78
2022/08/20 01:25:11;;;;;;;54.55;33.40;;;21.00;99.90;;;20.12;100.00;100800.88;5020951;28;20138;-78
2022/08/20 01:27:39;;;;;;;57.10;32.03;;;20.90;99.90;;;20.03;100.00;100801.69;5022665;28;20157;-78
2022/08/20 01:30:07;;;;;;;58.58;32.05;;;20.90;99.90;;;19.98;100.00;100801.25;5021437;28;20121;-78
2022/08/20 01:32:33;;;;;;;54.92;32.80;;;20.80;99.90;;;19.91;100.00;100802.72;5008494;28;20099;-78
2022/08/20 01:34:59;;;;;;;58.92;32.75;;;20.70;99.90;;;19.73;100.00;100800.63;5036983;28;20053;-78
2022/08/20 01:37:24;;;;;;;63.65;36.03;;;20.70;99.90;;;19.70;100.00;100792.88;5032566;28;20040;-78
2022/08/20 01:39:50;;;;;;;73.03;37.20;;;20.70;99.90;;;19.75;100.00;100790.66;5001938;28;20048;-78
2022/08/20 01:42:30;;;;;;;79.43;40.20;;;20.60;99.90;;;19.78;100.00;100789.53;5021154;28;20087;-78
2022/08/20 01:44:56;;;;;;;79.80;39.83;;;20.60;99.90;;;19.73;100.00;100789.94;5003442;28;20520;-78
2022/08/20 01:47:27;;;;;;;77.45;40.50;;;20.60;99.90;;;19.63;100.00;100791.66;5010309;28;20552;-78
2022/08/20 01:50:12;;;;;;;78.55;39.95;;;20.50;99.90;;;19.60;100.00;100798.09;5021118;28;20079;-78
2022/08/20 01:53:15;;;;;;;83.38;39.63;;;20.50;99.90;;;19.51;100.00;100798.88;4997837;28;20717;-79
2022/08/20 01:55:43;;;;;;;72.97;36.28;;;20.40;99.90;;;19.41;100.00;100806.78;5017259;28;20044;-79
2022/08/20 01:58:09;;;;;;;101.03;44.10;;;20.40;99.90;;;19.37;100.00;100802.69;5027935;28;20050;-79
2022/08/20 02:00:35;;;;;;;86.07;42.08;;;20.30;99.90;;;19.34;100.00;100797.59;5033769;28;20045;-78
2022/08/20 02:03:02;;;;;;;96.80;44.85;;;20.30;99.90;;;19.35;100.00;100795.78;5013047;28;20091;-79
2022/08/20 02:05:37;;;;;;;106.60;46.83;;;20.30;99.90;;;19.33;100.00;100801.25;5014947;28;20078;-80
2022/08/20 02:08:04;;;;;;;101.25;46.78;;;20.30;99.90;;;19.37;100.00;100802.69;5001744;28;20033;-80
2022/08/20 02:10:30;;;;;;;113.97;48.85;;;20.30;99.90;;;19.46;100.00;100806.44;4995325;28;20113;-79
2022/08/20 02:13:04;;;;;;;135.27;53.65;;;20.30;99.90;;;19.53;100.00;100804.09;4992353;28;20025;-79
2022/08/20 02:15:30;;;;;;;121.22;49.00;;;20.40;99.90;;;19.53;100.00;100809.44;4995375;28;20028;-79
2022/08/20 02:17:56;;;;;;;97.15;46.05;;;20.40;99.90;;;19.47;100.00;100803.63;5012753;28;20047;-79
2022/08/20 02:20:32;;;;;;;114.90;50.03;;;20.40;99.90;;;19.49;100.00;100811.50;5034868;28;20021;-79
2022/08/20 02:22:58;;;;;;;119.80;49.72;;;20.30;99.90;;;19.41;100.00;100806.78;4977682;28;20121;-79
2022/08/20 02:25:32;;;;;;;105.35;45.45;;;20.30;99.90;;;19.37;100.00;100810.72;5050284;28;20163;-78
2022/08/20 02:28:02;;;;;;;124.72;50.67;;;20.30;99.90;;;19.34;100.00;100818.13;5014156;28;20155;-79
2022/08/20 02:30:33;;;;;;;101.75;44.20;;;20.30;99.90;;;19.29;100.00;100817.63;5006408;28;20093;-79
2022/08/20 02:33:06;;;;;;;86.43;40.70;;;20.20;99.90;;;19.19;100.00;100810.38;4987696;28;20040;-79
2022/08/20 02:35:32;;;;;;;87.55;40.55;;;20.10;99.90;;;19.15;100.00;100818.75;4993443;28;20040;-79
2022/08/20 02:37:58;;;;;;;77.88;38.65;;;20.10;99.90;;;19.11;100.00;100822.66;5036256;28;20021;-78
2022/08/20 02:40:28;;;;;;;85.90;42.20;;;20.10;99.90;;;19.10;100.00;100818.31;5004917;28;20719;-78
2022/08/20 02:42:54;;;;;;;77.22;40.42;;;20.10;99.90;;;19.09;100.00;100821.94;4989331;28;20050;-78
2022/08/20 02:45:21;;;;;;;81.38;40.33;;;20.10;99.90;;;19.09;100.00;100829.94;4995592;28;20036;-78
2022/08/20 02:47:47;;;;;;;81.95;40.28;;;20.00;99.90;;;19.10;100.00;100823.63;5030666;28;20051;-78
2022/08/20 02:50:23;;;;;;;83.28;39.80;;;20.10;99.90;;;19.17;100.00;100827.50;5033430;28;20029;-78
2022/08/20 02:52:49;;;;;;;80.70;38.57;;;20.10;99.90;;;19.13;100.00;100823.38;5024360;28;20016;-78
2022/08/20 02:55:15;;;;;;;78.00;39.55;;;20.10;99.90;;;19.11;100.00;100825.31;4981532;28;20028;-78
2022/08/20 02:57:42;;;;;;;72.80;37.50;;;20.00;99.90;;;19.08;100.00;100828.25;5032320;28;20044;-77
2022/08/20 03:00:19;;;;;;;61.05;32.10;;;20.10;99.90;;;19.08;100.00;100833.59;5031349;28;20034;-78
2022/08/20 03:02:45;;;;;;;51.10;29.20;;;20.00;99.90;;;18.97;100.00;100834.44;5036062;28;20043;-77
2022/08/20 03:05:15;;;;;;;64.22;34.25;;;20.00;99.90;;;18.96;100.00;100836.28;5007684;28;20067;-78
2022/08/20 03:07:48;;;;;;;60.67;32.47;;;20.00;99.90;;;18.95;100.00;100845.22;5023168;28;20057;-77
2022/08/20 03:10:15;;;;;;;50.00;29.08;;;19.90;99.90;;;18.89;100.00;100839.53;5028119;28;20060;-77
2022/08/20 03:12:43;;;;;;;50.08;27.95;;;19.90;99.90;;;18.86;100.00;100835.31;5016431;28;20060;-77
2022/08/20 03:15:10;;;;;;;43.03;26.38;;;19.80;99.90;;;18.81;100.00;100826.81;5040938;28;20078;-77
2022/08/20 03:17:36;;;;;;;41.10;25.95;;;19.80;99.90;;;18.79;100.00;100824.28;5021454;28;20531;-77
2022/08/20 03:20:07;;;;;;;43.45;25.48;;;19.80;99.90;;;18.76;100.00;100837.81;5026856;28;20032;-78
2022/08/20 03:22:38;;;;;;;43.95;27.13;;;19.80;99.90;;;18.81;100.00;100842.81;5005214;28;20032;-78
2022/08/20 03:25:06;;;;;;;38.63;24.13;;;19.70;99.90;;;18.69;100.00;100831.28;5020625;28;20039;-77
2022/08/20 03:27:32;;;;;;;40.08;24.30;;;19.70;99.90;;;18.60;100.00;100840.84;5022130;28;20107;-77
2022/08/20 03:29:58;;;;;;;38.28;23.50;;;19.60;99.90;;;18.52;100.00;100835.25;5034344;28;20036;-78
2022/08/20 03:32:24;;;;;;;38.58;25.25;;;19.50;99.90;;;18.51;100.00;100848.72;5025713;28;20078;-76
2022/08/20 03:34:50;;;;;;;36.20;23.60;;;19.50;99.90;;;18.48;100.00;100838.28;5014058;28;20428;-77
2022/08/20 03:37:15;;;;;;;;;;;19.50;99.90;;;18.35;100.00;100836.56;5015468;28;20673;-78
2022/08/20 03:39:41;;;;;;;32.47;21.83;;;19.40;99.90;;;18.31;100.00;100835.13;5025944;28;19951;-77
2022/08/20 03:42:07;;;;;;;37.95;25.15;;;19.40;99.90;;;18.29;100.00;100839.72;5050303;28;20441;-77
2022/08/20 03:44:35;;;;;;;45.38;28.17;;;19.30;99.90;;;18.29;100.00;100841.53;5029338;28;20048;-78
2022/08/20 03:47:08;;;;;;;39.33;25.27;;;19.30;99.90;;;18.27;100.00;100844.31;5017400;28;20510;-77
2022/08/20 03:49:36;;;;;;;45.40;27.05;;;19.30;99.90;;;18.25;100.00;100843.59;5020182;28;20034;-78
2022/08/20 03:52:04;;;;;;;37.70;24.58;;;19.20;99.90;;;18.16;100.00;100842.50;5001670;28;20048;-77
2022/08/20 03:54:30;;;;;;;37.85;25.30;;;19.20;99.90;;;18.14;100.00;100839.09;5031278;28;20084;-77
2022/08/20 03:56:55;;;;;;;36.53;25.88;;;19.20;99.90;;;18.14;100.00;100841.78;5060314;28;20750;-77
2022/08/20 03:59:26;;;;;;;36.20;25.05;;;19.20;99.90;;;18.13;100.00;100840.06;5005935;28;20024;-77
2022/08/20 04:01:53;;;;;;;33.88;22.50;;;19.10;99.90;;;18.11;100.00;100841.16;5028223;28;20077;-77
2022/08/20 04:04:20;;;;;;;40.45;25.58;;;19.10;99.90;;;18.10;100.00;100845.63;5038109;28;20032;-77
2022/08/20 04:06:46;;;;;;;30.65;21.63;;;19.10;99.90;;;18.05;100.00;100855.78;5023288;28;20518;-77
2022/08/20 04:09:13;;;;;;;34.47;23.25;;;19.10;99.90;;;18.08;100.00;100857.34;5006159;28;20041;-77
2022/08/20 04:11:43;;;;;;;27.95;20.08;;;19.10;99.90;;;18.03;100.00;100855.91;4988869;28;20029;-77
2022/08/20 04:14:10;;;;;;;31.55;22.13;;;19.10;99.90;;;18.06;100.00;100860.16;5041651;28;20040;-77
2022/08/20 04:16:38;;;;;;;39.03;25.38;;;19.10;99.90;;;18.11;100.00;100857.97;5022612;28;20040;-77
2022/08/20 04:19:11;;;;;;;39.38;25.75;;;19.10;99.90;;;18.14;100.00;100860.41;5046861;28;20044;-77
2022/08/20 04:21:37;;;;;;;38.00;24.27;;;19.10;99.90;;;18.10;100.00;100858.09;5018205;28;21735;-77
2022/08/20 04:24:05;;;;;;;41.97;28.23;;;19.10;99.90;;;18.11;100.00;100849.97;5018163;28;20025;-77
2022/08/20 04:26:31;;;;;;;43.80;27.65;;;19.10;99.90;;;18.13;100.00;100858.72;5014784;28;20074;-77
2022/08/20 04:29:04;;;;;;;46.72;29.63;;;19.10;99.90;;;18.17;100.00;100854.00;5026437;28;20055;-77
2022/08/20 04:31:33;;;;;;;59.80;35.13;;;19.20;99.90;;;18.22;100.00;100847.34;5027915;28;20040;-77
2022/08/20 04:34:07;;;;;;;53.50;31.58;;;19.20;99.90;;;18.22;100.00;100851.81;5002929;28;20047;-77
2022/08/20 04:36:34;;;;;;;72.47;36.65;;;19.20;99.90;;;18.32;100.00;100852.81;5022043;28;20651;-77
2022/08/20 04:39:00;;;;;;;67.32;35.95;;;19.30;99.90;;;18.39;100.00;100863.84;5016112;28;20040;-77
2022/08/20 04:41:27;;;;;;;81.15;41.92;;;19.30;99.90;;;18.45;100.00;100860.72;5046520;28;20056;-77
2022/08/20 04:43:57;;;;;;;81.28;42.15;;;19.40;99.90;;;18.50;100.00;100863.03;5030947;28;20056;-76
2022/08/20 04:46:27;;;;;;;99.22;44.95;;;19.40;99.90;;;18.54;100.00;100864.47;5023408;28;20658;-77
2022/08/20 04:48:54;;;;;;;88.20;43.38;;;19.40;99.90;;;18.56;100.00;100866.06;4999429;28;20052;-77
2022/08/20 04:51:24;;;;;;;92.72;44.55;;;19.50;99.90;;;18.58;100.00;100872.13;4984297;28;20033;-77
2022/08/20 04:53:52;;;;;;;78.93;42.30;;;19.50;99.90;;;18.54;100.00;100870.66;5026830;28;20054;-77
2022/08/20 04:56:22;;;;;;;88.47;43.00;;;19.40;99.90;;;18.51;100.00;100870.03;5017619;28;20064;-77
2022/08/20 04:58:48;;;;;;;93.75;43.95;;;19.40;99.90;;;18.51;100.00;100875.38;5035280;28;20074;-76
2022/08/20 05:01:17;;;;;;;104.78;47.25;;;19.40;99.90;;;18.52;100.00;100875.25;5052922;28;20067;-77
2022/08/20 05:03:43;;;;;;;106.65;48.38;;;19.50;99.90;;;18.58;100.00;100874.78;5037271;28;20039;-77
2022/08/20 05:06:11;;;;;;;115.40;50.92;;;19.50;99.90;;;18.62;100.00;100886.91;5005824;28;20036;-77
2022/08/20 05:08:37;;;;;;;119.25;52.05;;;19.50;99.90;;;18.70;100.00;100882.78;5031231;28;21635;-76
2022/08/20 05:11:10;;;;;;;115.43;50.83;;;19.50;99.90;;;18.76;100.00;100875.16;5002421;28;20587;-77
2022/08/20 05:13:36;;;;;;;123.05;51.65;;;19.60;99.90;;;18.83;100.00;100880.88;5028001;28;20042;-77
2022/08/20 05:16:03;;;;;;;105.53;48.83;;;19.70;99.90;;;18.92;100.00;100881.97;5013837;28;20031;-77
2022/08/20 05:18:32;;;;;;;121.82;51.28;;;19.70;99.90;;;18.99;100.00;100889.38;5033116;28;20520;-77
2022/08/20 05:21:04;;;;;;;113.03;50.42;;;19.80;99.90;;;19.05;100.00;100893.41;4979457;28;20041;-77
2022/08/20 05:23:40;;;;;;;108.30;50.08;;;19.80;99.90;;;19.12;100.00;100891.94;5009076;28;20516;-77
2022/08/20 05:26:07;;;;;;;133.07;55.83;;;19.90;99.90;;;19.18;100.00;100898.56;5043293;28;20036;-77
2022/08/20 05:28:37;;;;;;;103.30;50.47;;;20.00;99.90;;;19.24;100.00;100893.63;5012521;28;20032;-77
2022/08/20 05:31:08;;;;;;;130.70;55.60;;;20.00;99.90;;;19.31;100.00;100893.97;5031289;28;20032;-77
2022/08/20 05:33:36;;;;;;;142.10;57.88;;;20.10;99.90;;;19.37;100.00;100893.47;5026970;28;20039;-77
2022/08/20 05:36:05;;;;;;;143.13;57.10;;;20.20;99.90;;;19.41;100.00;100900.25;4990945;28;20056;-77
2022/08/20 05:38:34;;;;;;;144.13;55.70;;;20.20;99.90;;;19.45;100.00;100895.50;5028146;28;20091;-77
2022/08/20 05:41:03;;;;;;;139.98;53.60;;;20.20;99.90;;;19.50;100.00;100895.13;5010436;28;20036;-77
2022/08/20 05:43:29;;;;;;;187.50;61.92;;;20.30;99.90;;;19.55;100.00;100892.94;5027163;28;20487;-77
2022/08/20 05:45:57;;;;;;;211.55;66.15;;;20.30;99.90;;;19.59;100.00;100892.56;5029455;28;20167;-77
2022/08/20 05:48:24;;;;;;;191.00;66.18;;;20.40;99.90;;;19.65;100.00;100893.88;5017585;28;20587;-78
2022/08/20 05:50:53;;;;;;;204.82;67.03;;;20.40;99.90;;;19.70;100.00;100894.38;5010954;28;20028;-78
2022/08/20 05:53:21;;;;;;;205.40;66.85;;;20.40;99.90;;;19.71;100.00;100892.56;5009494;28;20021;-78
2022/08/20 05:55:48;;;;;;;191.07;65.15;;;20.40;99.90;;;19.65;100.00;100899.22;5021258;28;20092;-77
2022/08/20 05:58:28;;;;;;;189.35;66.28;;;20.40;99.90;;;19.61;100.00;100893.28;5023431;28;20071;-77
2022/08/20 06:00:54;;;;;;;190.98;66.40;;;20.40;99.90;;;19.55;100.00;100896.47;5040661;28;20065;-77
2022/08/20 06:06:06;;;;;;;188.50;68.35;;;20.40;99.90;;;19.56;100.00;100895.47;5002148;28;20078;-78
2022/08/20 06:08:33;;;;;;;219.38;74.22;;;20.40;99.90;;;19.57;100.00;100891.00;5019330;28;20048;-77
2022/08/20 06:10:59;;;;;;;215.23;71.80;;;20.40;99.90;;;19.63;100.00;100898.50;5038158;28;20037;-77
2022/08/20 06:13:26;;;;;;;215.15;71.82;;;20.40;99.90;;;19.65;100.00;100896.53;5011022;28;21005;-78
2022/08/20 06:15:52;;;;;;;222.38;72.22;;;20.40;99.90;;;19.61;100.00;100893.28;5039285;28;20077;-76
2022/08/20 06:18:23;;;;;;;217.63;70.13;;;20.40;99.90;;;19.64;100.00;100894.84;5025387;28;20471;-78
2022/08/20 06:20:49;;;;;;;187.77;66.38;;;20.40;99.90;;;19.59;100.00;100892.56;5024034;28;20039;-77
2022/08/20 06:23:16;;;;;;;214.93;70.35;;;20.40;99.90;;;19.63;100.00;100891.34;5019087;28;20060;-78
2022/08/20 06:25:42;;;;;;;224.20;72.15;;;20.50;99.90;;;19.67;100.00;100887.44;4998268;28;20068;-78
2022/08/20 06:28:08;;;;;;;207.30;71.70;;;20.50;99.90;;;19.75;100.00;100886.84;5005069;22;20045;-78
2022/08/20 06:30:39;;;;;;;198.63;69.07;;;20.50;99.90;;;19.84;100.00;100894.06;4947445;28;20137;-78
2022/08/20 06:33:05;;;;;;;203.00;71.40;;;20.60;99.90;;;19.90;100.00;100900.75;5004043;28;20041;-78
2022/08/20 06:35:32;;;;;;;205.88;69.88;;;20.60;99.90;;;19.96;100.00;100907.41;4996157;28;20037;-78
2022/08/20 06:37:59;;;;;;;222.27;74.50;;;20.70;99.90;;;19.97;100.00;100912.63;4988938;28;20100;-78
2022/08/20 06:40:33;;;;;;;193.30;67.72;;;20.70;99.90;;;19.98;100.00;100908.13;4970399;28;20765;-77
2022/08/20 06:42:59;;;;;;;172.95;65.65;;;20.70;99.90;;;19.95;100.00;100903.03;4982230;28;20037;-78
2022/08/20 06:45:35;;;;;;;205.55;68.72;;;20.80;99.90;;;20.01;100.00;100911.38;5007808;28;20022;-78
2022/08/20 06:48:08;;;;;;;181.63;67.38;;;20.70;99.90;;;19.98;100.00;100911.66;4993263;28;20040;-78
2022/08/20 06:50:41;;;;;;;195.90;71.10;;;20.80;99.90;;;20.05;100.00;100909.31;4999321;28;20029;-79
2022/08/20 06:53:17;;;;;;;223.43;74.65;;;20.80;99.90;;;20.16;100.00;100911.94;5001935;28;20123;-78
2022/08/20 06:55:52;;;;;;;221.40;76.22;;;20.90;99.90;;;20.29;100.00;100923.28;4985079;28;20029;-77
2022/08/20 06:58:20;;;;;;;191.10;70.60;;;21.00;99.90;;;20.38;100.00;100921.66;4997256;28;20018;-78
2022/08/20 07:00:47;;;;;;;212.45;73.55;;;21.10;99.90;;;20.44;100.00;100914.94;4969162;28;20119;-77
2022/08/20 07:03:14;;;;;;;183.95;67.25;;;21.10;99.90;;;20.46;100.00;100905.81;5010650;28;20479;-77
2022/08/20 07:05:43;;;;;;;165.02;66.45;;;21.20;99.90;;;20.52;100.00;100906.25;4994652;28;20040;-78
2022/08/20 07:08:17;;;;;;;151.23;63.67;;;21.20;99.90;;;20.50;100.00;100906.41;5023782;28;20498;-78
2022/08/20 07:10:44;;;;;;;126.82;55.85;;;21.20;99.90;;;20.35;100.00;100911.22;4993397;28;20038;-76
2022/08/20 07:13:11;;;;;;;154.80;64.60;;;21.20;99.90;;;20.35;100.00;100918.41;4975041;28;20110;-76
2022/08/20 07:15:40;;;;;;;137.23;59.00;;;21.20;99.90;;;20.39;100.00;100912.66;5005511;28;20120;-75
2022/08/20 07:18:06;;;;;;;126.65;57.67;;;21.10;99.90;;;20.37;100.00;100911.94;4977954;28;20032;-77
2022/08/20 07:20:35;;;;;;;120.72;56.45;;;21.20;99.90;;;20.33;100.00;100910.50;5015262;28;20666;-76
2022/08/20 07:23:02;;;;;;;116.38;53.65;;;21.10;99.90;;;20.38;100.00;100908.28;4992015;28;20041;-77
2022/08/20 07:25:32;;;;;;;114.30;53.78;;;21.10;99.90;;;20.38;100.00;100918.97;5012420;28;20516;-76
2022/08/20 07:28:07;;;;;;;111.07;53.13;;;21.10;99.90;;;20.35;100.00;100926.44;4992790;28;20226;-76
2022/08/20 07:33:21;;;;;;;91.40;47.17;;;21.10;99.90;;;20.31;100.00;100938.34;5021350;28;20127;-76
2022/08/20 07:35:47;;;;;;;85.93;46.80;;;21.10;99.90;;;20.30;100.00;100940.16;4990836;28;20034;-76
2022/08/20 07:38:24;;;;;;;88.65;43.97;;;21.20;99.90;;;20.41;100.00;100937.44;5011962;28;20640;-76
2022/08/20 07:40:59;;;;;;;79.03;42.72;;;21.20;99.90;;;20.40;100.00;100943.75;5021975;28;20115;-75
2022/08/20 07:43:26;;;;;;;81.53;43.67;;;21.10;99.90;;;20.31;100.00;100951.72;5020139;28;20040;-76
2022/08/20 07:45:56;;;;;;;94.55;48.88;;;21.20;99.90;;;20.40;100.00;100948.28;4983567;28;20030;-76
2022/08/20 07:48:24;;;;;;;74.25;42.33;;;21.20;99.90;;;20.44;100.00;100955.06;5004064;28;20033;-76
2022/08/20 07:50:55;;;;;;;82.40;43.95;;;21.20;99.90;;;20.45;100.00;100948.72;5012772;28;20049;-79
2022/08/20 07:53:21;;;;;;;67.25;38.30;;;21.20;99.90;;;20.47;100.00;100946.75;4976391;28;20041;-78
2022/08/20 07:55:47;;;;;;;68.32;37.78;;;21.30;99.90;;;20.57;100.00;100953.06;4987219;28;20451;-79
2022/08/20 07:58:26;;;;;;;65.68;37.75;;;21.30;99.90;;;20.67;100.00;100959.34;4981659;28;20036;-78
2022/08/20 08:00:52;;;;;;;55.83;34.30;;;21.40;99.90;;;20.69;100.00;100970.75;4997960;28;20030;-79
2022/08/20 08:03:18;;;;;;;53.50;32.95;;;21.40;99.90;;;20.65;100.00;100972.00;4985358;28;20052;-78
2022/08/20 08:05:52;;;;;;;46.25;30.67;;;21.40;99.90;;;20.74;100.00;100970.34;4999616;28;20533;-78
2022/08/20 08:08:30;;;;;;;51.40;30.35;;;21.50;99.90;;;20.81;100.00;100970.69;5007051;28;20038;-79
2022/08/20 08:11:01;;;;;;;47.05;29.70;;;21.60;99.90;;;20.96;100.00;100972.03;5005644;28;20064;-78
2022/08/20 08:13:35;;;;;;;45.67;28.00;;;21.70;99.90;;;21.22;100.00;100968.91;4963950;28;21815;-79
2022/08/20 08:16:04;;;;;;;40.95;27.67;;;21.90;99.90;;;21.39;100.00;100976.31;4981453;28;20363;-78
2022/08/20 08:18:48;;;;;;;40.20;25.35;;;22.00;99.90;;;21.53;100.00;100975.09;4996916;28;20025;-78
2022/08/20 08:21:16;;;;;;;42.75;26.73;;;22.20;99.90;;;21.70;100.00;100979.78;4971895;28;20037;-78
2022/08/20 08:23:43;;;;;;;35.30;24.92;;;22.30;99.90;;;21.72;100.00;100968.94;5018809;28;20037;-78
2022/08/20 08:26:14;;;;;;;33.60;23.48;;;22.30;99.90;;;21.73;100.00;100976.03;4979156;28;20033;-79
2022/08/20 08:28:43;;;;;;;34.15;20.60;;;22.30;99.90;;;21.65;100.00;100979.38;4995114;28;20040;-79
2022/08/20 08:31:11;;;;;;;32.67;22.42;;;22.30;99.90;;;21.59;100.00;100968.34;4968088;28;20029;-79
2022/08/20 08:33:39;;;;;;;30.23;21.40;;;22.30;99.90;;;21.55;100.00;100977.66;5007338;28;20065;-79
2022/08/20 08:36:14;;;;;;;33.40;21.58;;;22.20;99.90;;;21.45;100.00;100977.63;4988713;28;20059;-79
2022/08/20 08:38:43;;;;;;;26.10;17.08;;;22.20;99.90;;;21.41;100.00;100974.38;4970416;28;20655;-79
2022/08/20 08:41:19;;;;;;;30.20;21.98;;;22.20;99.90;;;21.45;100.00;100975.78;4991004;28;20067;-79
2022/08/20 08:43:51;;;;;;;35.07;22.97;;;22.20;99.90;;;21.49;100.00;100973.69;4985101;28;20025;-79
2022/08/20 08:46:27;;;;;;;33.28;22.92;;;22.20;99.90;;;21.65;100.00;100979.38;4998652;28;20268;-79
2022/08/20 08:49:04;;;;;;;30.73;20.90;;;22.20;99.90;;;21.47;100.00;100971.16;5000136;28;20041;-79
2022/08/20 08:51:44;;;;;;;30.77;20.08;;;22.10;99.90;;;21.31;100.00;100978.81;4998778;28;20048;-80
2022/08/20 08:54:18;;;;;;;34.55;22.38;;;22.10;99.90;;;21.24;100.00;100981.19;5007448;28;20028;-80
2022/08/20 08:56:47;;;;;;;34.42;21.15;;;22.00;99.90;;;21.15;100.00;100982.00;4940521;28;20115;-79
2022/08/20 08:59:13;;;;;;;31.00;21.15;;;21.90;99.90;;;21.15;100.00;100981.16;4974386;28;20099;-81
2022/08/20 09:01:52;;;;;;;29.15;20.52;;;21.90;99.90;;;21.19;100.00;100985.25;4976339;28;20034;-79
2022/08/20 09:04:20;;;;;;;34.28;21.42;;;22.00;99.90;;;21.28;100.00;100996.00;4959099;28;20033;-79
2022/08/20 09:06:57;;;;;;;27.38;20.15;;;21.90;99.90;;;21.19;100.00;100995.97;4964750;28;20396;-78
2022/08/20 09:09:36;;;;;;;26.90;19.27;;;21.90;99.90;;;21.14;100.00;100999.03;4980942;28;20780;-79
2022/08/20 09:12:13;;;;;;;29.55;20.00;;;21.90;99.90;;;21.15;100.00;101006.09;4970180;28;20037;-79
2022/08/20 09:14:40;;;;;;;35.25;20.27;;;21.90;99.90;;;21.25;100.00;101006.13;4995815;28;20042;-79
2022/08/20 09:17:09;;;;;;;27.88;19.70;;;22.00;99.90;;;21.33;100.00;100997.44;4944893;28;20044;-79
2022/08/20 09:19:35;;;;;;;28.63;18.88;;;22.00;99.90;;;21.41;100.00;101006.50;4977482;28;20045;-78
2022/08/20 09:22:14;;;;;;;27.85;19.42;;;22.00;99.90;;;21.43;100.00;101009.06;4985998;28;20045;-79
2022/08/20 09:24:48;;;;;;;27.38;19.05;;;22.10;99.90;;;21.50;100.00;101015.56;5004842;28;20036;-79
2022/08/20 09:27:14;;;;;;;24.30;18.02;;;22.10;99.90;;;21.56;100.00;101008.84;4956351;28;20041;-79
2022/08/20 09:29:40;;;;;;;28.65;17.42;;;22.20;99.90;;;21.55;100.00;101010.63;4951987;28;20127;-79
2022/08/20 09:32:17;;;;;;;26.67;18.33;;;22.20;99.90;;;21.60;100.00;101007.59;4992869;28;20508;-79
2022/08/20 09:34:55;;;;;;;28.65;18.27;;;22.20;99.90;;;21.59;100.00;100998.66;5008631;28;20060;-79
2022/08/20 09:37:28;;;;;;;28.73;18.35;;;22.20;99.90;;;21.65;100.00;101006.16;5000230;28;20097;-79
2022/08/20 09:39:58;;;;;;;24.20;18.02;;;22.30;99.90;;;21.77;100.00;101008.72;4971431;28;20046;-81
2022/08/20 09:42:33;;;;;;;26.40;18.13;;;22.40;99.90;;;21.89;100.00;101004.97;4945594;28;20045;-81
2022/08/20 09:45:05;;;;;;;22.85;17.25;;;22.40;99.90;;;21.83;100.00;101008.19;5005972;28;20046;-81
2022/08/20 09:47:31;;;;;;;20.35;15.88;;;22.40;99.90;;;21.73;100.00;101008.19;4978852;28;20029;-80
2022/08/20 09:50:00;;;;;;;24.58;16.08;;;22.40;99.90;;;21.68;100.00;101013.09;4966233;28;20121;-81
2022/08/20 09:52:35;;;;;;;26.58;16.52;;;22.40;99.90;;;21.80;100.00;101017.34;4970978;28;20051;-82
2022/08/20 09:55:14;;;;;;;25.75;14.63;;;22.40;99.90;;;21.78;100.00;101018.47;5017272;28;20725;-82
2022/08/20 09:57:43;;;;;;;24.52;15.60;;;22.40;99.90;;;21.88;100.00;101008.63;5012962;28;20075;-82
2022/08/20 10:00:16;;;;;;;24.75;15.32;;;22.50;99.90;;;22.01;100.00;101011.91;4988871;28;20028;-82
2022/08/20 10:02:42;;;;;;;21.85;15.40;;;22.50;99.90;;;22.03;100.00;101014.41;4932867;28;20041;-82
2022/08/20 10:05:17;;;;;;;19.77;14.63;;;22.60;99.90;;;22.08;100.00;101013.03;4957846;28;20221;-82
2022/08/20 10:07:43;;;;;;;18.75;12.65;;;22.70;99.90;;;22.25;100.00;101018.75;5001552;28;20124;-82
2022/08/20 10:10:16;;;;;;;15.25;12.23;;;22.80;99.90;;;22.27;100.00;101014.91;5002647;28;20085;-83
2022/08/20 10:12:47;;;;;;;17.00;12.32;;;22.80;99.90;;;22.30;100.00;101017.31;4980578;28;20486;-82
2022/08/20 10:15:14;;;;;;;15.40;11.98;;;22.90;99.90;;;22.42;100.00;101023.41;4997446;28;20064;-82